sensor_id;sensor_type;location;lat;lon;timestamp;P1;durP1;ratioP1;P2;durP2;ratioP2
31402;SDS011;18039;52.188;21.024;2022-09-27T00:01:06;32.83;;;22.77;;
31402;SDS011;18039;52.188;21.024;2022-09-27T00:03:40;37.42;;;22.63;;
31402;SDS011;18039;52.188;21.024;2022-09-27T00:06:11;35.67;;;23.30;;
31402;SDS011;18039;52.188;21.024;2022-09-27T00:11:09;38.97;;;24.40;;
31402;SDS011;18039;52.188;21.024;2022-09-27T00:13:41;34.80;;;23.05;;
31402;SDS011;18039;52.188;21.024;2022-09-27T00:16:09;40.20;;;24.40;;
31402;SDS011;18039;52.188;21.024;2022-09-27T00:18:36;40.28;;;24.98;;
31402;SDS011;18039;52.188;21.024;2022-09-27T00:21:08;42.75;;;25.70;;
31402;SDS011;18039;52.188;21.024;2022-09-27T00:23:37;43.17;;;25.45;;
31402;SDS011;18039;52.188;21.024;2022-09-27T00:26:06;35.67;;;24.45;;
31402;SDS011;18039;52.188;21.024;2022-09-27T00:28:34;38.50;;;24.45;;
31402;SDS011;18039;52.188;21.024;2022-09-27T00:31:01;43.42;;;24.38;;
31402;SDS011;18039;52.188;21.024;2022-09-27T00:33:29;39.67;;;25.45;;
31402;SDS011;18039;52.188;21.024;2022-09-27T00:36:02;34.55;;;23.33;;
31402;SDS011;18039;52.188;21.024;2022-09-27T00:38:31;39.95;;;24.75;;
31402;SDS011;18039;52.188;21.024;2022-09-27T00:40:58;42.85;;;26.63;;
31402;SDS011;18039;52.188;21.024;2022-09-27T00:43:26;37.90;;;24.27;;
31402;SDS011;18039;52.188;21.024;2022-09-27T00:49:12;40.20;;;25.48;;
31402;SDS011;18039;52.188;21.024;2022-09-27T00:51:50;38.93;;;25.00;;
31402;SDS011;18039;52.188;21.024;2022-09-27T00:54:22;38.90;;;24.65;;
31402;SDS011;18039;52.188;21.024;2022-09-27T00:56:52;36.83;;;23.63;;
31402;SDS011;18039;52.188;21.024;2022-09-27T00:59:22;35.95;;;24.17;;
31402;SDS011;18039;52.188;21.024;2022-09-27T01:02:03;36.10;;;23.85;;
31402;SDS011;18039;52.188;21.024;2022-09-27T01:04:32;37.10;;;22.85;;
31402;SDS011;18039;52.188;21.024;2022-09-27T01:07:02;35.70;;;22.92;;
31402;SDS011;18039;52.188;21.024;2022-09-27T01:09:29;43.53;;;23.52;;
31402;SDS011;18039;52.188;21.024;2022-09-27T01:35:13;52.03;;;26.58;;
31402;SDS011;18039;52.188;21.024;2022-09-27T01:40:48;51.28;;;26.77;;
31402;SDS011;18039;52.188;21.024;2022-09-27T01:44:03;50.20;;;27.05;;
31402;SDS011;18039;52.188;21.024;2022-09-27T01:46:44;57.05;;;28.13;;
31402;SDS011;18039;52.188;21.024;2022-09-27T01:49:47;55.40;;;27.75;;
31402;SDS011;18039;52.188;21.024;2022-09-27T01:52:23;55.10;;;27.80;;
31402;SDS011;18039;52.188;21.024;2022-09-27T01:54:58;51.65;;;26.88;;
31402;SDS011;18039;52.188;21.024;2022-09-27T01:57:51;50.47;;;26.40;;
31402;SDS011;18039;52.188;21.024;2022-09-27T02:00:25;51.92;;;26.58;;
31402;SDS011;18039;52.188;21.024;2022-09-27T02:02:57;50.33;;;27.63;;
31402;SDS011;18039;52.188;21.024;2022-09-27T02:05:35;48.80;;;24.80;;
31402;SDS011;18039;52.188;21.024;2022-09-27T02:11:18;45.30;;;25.33;;
31402;SDS011;18039;52.188;21.024;2022-09-27T02:13:57;50.20;;;26.05;;
31402;SDS011;18039;52.188;21.024;2022-09-27T02:16:50;46.88;;;24.88;;
31402;SDS011;18039;52.188;21.024;2022-09-27T02:19:40;46.45;;;26.35;;
31402;SDS011;18039;52.188;21.024;2022-09-27T02:22:32;50.00;;;26.05;;
31402;SDS011;18039;52.188;21.024;2022-09-27T02:27:46;46.17;;;25.38;;
31402;SDS011;18039;52.188;21.024;2022-09-27T02:30:33;44.92;;;24.77;;
31402;SDS011;18039;52.188;21.024;2022-09-27T02:33:14;43.17;;;24.20;;
31402;SDS011;18039;52.188;21.024;2022-09-27T02:35:41;46.03;;;25.67;;
31402;SDS011;18039;52.188;21.024;2022-09-27T02:38:08;42.92;;;25.63;;
31402;SDS011;18039;52.188;21.024;2022-09-27T02:40:41;46.00;;;26.15;;
31402;SDS011;18039;52.188;21.024;2022-09-27T02:43:10;40.65;;;23.95;;
31402;SDS011;18039;52.188;21.024;2022-09-27T02:45:48;41.42;;;23.90;;
31402;SDS011;18039;52.188;21.024;2022-09-27T02:56:59;42.05;;;24.48;;
31402;SDS011;18039;52.188;21.024;2022-09-27T03:00:07;42.95;;;24.63;;
31402;SDS011;18039;52.188;21.024;2022-09-27T03:03:01;42.50;;;24.85;;
31402;SDS011;18039;52.188;21.024;2022-09-27T03:05:42;40.20;;;23.63;;
31402;SDS011;18039;52.188;21.024;2022-09-27T03:08:16;44.58;;;25.50;;
31402;SDS011;18039;52.188;21.024;2022-09-27T03:10:44;46.63;;;26.42;;
31402;SDS011;18039;52.188;21.024;2022-09-27T03:13:11;45.38;;;24.52;;
31402;SDS011;18039;52.188;21.024;2022-09-27T03:15:40;46.80;;;26.48;;
31402;SDS011;18039;52.188;21.024;2022-09-27T03:18:17;47.13;;;25.60;;
31402;SDS011;18039;52.188;21.024;2022-09-27T03:20:45;47.42;;;24.95;;
31402;SDS011;18039;52.188;21.024;2022-09-27T03:23:19;46.78;;;25.60;;
31402;SDS011;18039;52.188;21.024;2022-09-27T03:25:48;49.40;;;25.48;;
31402;SDS011;18039;52.188;21.024;2022-09-27T03:28:15;43.75;;;25.60;;
31402;SDS011;18039;52.188;21.024;2022-09-27T03:30:44;44.22;;;24.13;;
31402;SDS011;18039;52.188;21.024;2022-09-27T03:33:26;46.53;;;25.15;;
31402;SDS011;18039;52.188;21.024;2022-09-27T03:35:57;46.72;;;25.38;;
31402;SDS011;18039;52.188;21.024;2022-09-27T03:38:26;44.55;;;25.10;;
31402;SDS011;18039;52.188;21.024;2022-09-27T03:40:53;49.28;;;26.05;;
31402;SDS011;18039;52.188;21.024;2022-09-27T03:43:20;47.58;;;26.05;;
31402;SDS011;18039;52.188;21.024;2022-09-27T03:45:47;50.67;;;26.83;;
31402;SDS011;18039;52.188;21.024;2022-09-27T03:48:16;51.40;;;25.70;;
31402;SDS011;18039;52.188;21.024;2022-09-27T03:50:43;51.20;;;25.55;;
31402;SDS011;18039;52.188;21.024;2022-09-27T03:53:09;44.08;;;25.67;;
31402;SDS011;18039;52.188;21.024;2022-09-27T03:55:37;49.95;;;27.20;;
31402;SDS011;18039;52.188;21.024;2022-09-27T03:58:05;52.30;;;28.20;;
31402;SDS011;18039;52.188;21.024;2022-09-27T04:00:37;48.53;;;26.83;;
31402;SDS011;18039;52.188;21.024;2022-09-27T04:03:05;47.90;;;27.80;;
31402;SDS011;18039;52.188;21.024;2022-09-27T04:05:38;48.28;;;26.65;;
31402;SDS011;18039;52.188;21.024;2022-09-27T04:08:10;47.33;;;26.73;;
31402;SDS011;18039;52.188;21.024;2022-09-27T04:10:37;48.25;;;26.48;;
31402;SDS011;18039;52.188;21.024;2022-09-27T04:13:04;49.25;;;26.95;;
31402;SDS011;18039;52.188;21.024;2022-09-27T04:15:41;49.58;;;27.92;;
31402;SDS011;18039;52.188;21.024;2022-09-27T04:18:29;53.45;;;27.38;;
31402;SDS011;18039;52.188;21.024;2022-09-27T04:21:33;48.42;;;25.45;;
31402;SDS011;18039;52.188;21.024;2022-09-27T04:24:01;48.42;;;26.75;;
31402;SDS011;18039;52.188;21.024;2022-09-27T04:26:28;46.97;;;26.13;;
31402;SDS011;18039;52.188;21.024;2022-09-27T04:29:01;53.15;;;27.92;;
31402;SDS011;18039;52.188;21.024;2022-09-27T04:34:08;50.83;;;26.73;;
31402;SDS011;18039;52.188;21.024;2022-09-27T04:36:39;61.00;;;28.98;;
31402;SDS011;18039;52.188;21.024;2022-09-27T04:39:08;58.53;;;28.67;;
31402;SDS011;18039;52.188;21.024;2022-09-27T04:41:39;59.88;;;29.48;;
31402;SDS011;18039;52.188;21.024;2022-09-27T04:44:06;57.30;;;28.52;;
31402;SDS011;18039;52.188;21.024;2022-09-27T04:46:33;52.65;;;27.42;;
31402;SDS011;18039;52.188;21.024;2022-09-27T04:49:01;57.75;;;31.10;;
31402;SDS011;18039;52.188;21.024;2022-09-27T04:51:31;56.10;;;29.77;;
31402;SDS011;18039;52.188;21.024;2022-09-27T04:53:58;59.80;;;30.17;;
31402;SDS011;18039;52.188;21.024;2022-09-27T04:56:29;58.40;;;30.48;;
31402;SDS011;18039;52.188;21.024;2022-09-27T04:58:56;58.28;;;28.90;;
31402;SDS011;18039;52.188;21.024;2022-09-27T05:01:24;56.25;;;30.20;;
31402;SDS011;18039;52.188;21.024;2022-09-27T05:04:11;58.03;;;30.13;;
31402;SDS011;18039;52.188;21.024;2022-09-27T05:06:42;61.67;;;30.90;;
31402;SDS011;18039;52.188;21.024;2022-09-27T05:09:18;57.97;;;27.77;;
31402;SDS011;18039;52.188;21.024;2022-09-27T05:11:48;60.72;;;28.85;;
31402;SDS011;18039;52.188;21.024;2022-09-27T05:14:15;56.22;;;29.85;;
31402;SDS011;18039;52.188;21.024;2022-09-27T05:16:53;55.53;;;27.80;;
31402;SDS011;18039;52.188;21.024;2022-09-27T05:19:40;54.95;;;27.83;;
31402;SDS011;18039;52.188;21.024;2022-09-27T05:22:17;59.60;;;29.10;;
31402;SDS011;18039;52.188;21.024;2022-09-27T05:24:45;57.35;;;28.10;;
31402;SDS011;18039;52.188;21.024;2022-09-27T05:27:13;57.95;;;28.17;;
31402;SDS011;18039;52.188;21.024;2022-09-27T05:29:44;59.90;;;28.65;;
31402;SDS011;18039;52.188;21.024;2022-09-27T05:32:18;57.92;;;27.98;;
31402;SDS011;18039;52.188;21.024;2022-09-27T05:34:51;59.80;;;28.63;;
31402;SDS011;18039;52.188;21.024;2022-09-27T05:37:19;57.30;;;28.40;;
31402;SDS011;18039;52.188;21.024;2022-09-27T05:39:47;59.53;;;28.75;;
31402;SDS011;18039;52.188;21.024;2022-09-27T05:42:16;62.70;;;30.13;;
31402;SDS011;18039;52.188;21.024;2022-09-27T05:44:44;62.65;;;28.13;;
31402;SDS011;18039;52.188;21.024;2022-09-27T05:47:14;59.65;;;26.80;;
31402;SDS011;18039;52.188;21.024;2022-09-27T05:49:41;60.40;;;27.15;;
31402;SDS011;18039;52.188;21.024;2022-09-27T05:52:10;61.13;;;26.13;;
31402;SDS011;18039;52.188;21.024;2022-09-27T05:54:42;58.28;;;26.90;;
31402;SDS011;18039;52.188;21.024;2022-09-27T05:57:09;56.45;;;26.02;;
31402;SDS011;18039;52.188;21.024;2022-09-27T05:59:42;55.53;;;27.38;;
31402;SDS011;18039;52.188;21.024;2022-09-27T06:02:35;56.72;;;26.08;;
31402;SDS011;18039;52.188;21.024;2022-09-27T06:05:22;51.50;;;23.30;;
31402;SDS011;18039;52.188;21.024;2022-09-27T06:08:28;47.17;;;23.67;;
31402;SDS011;18039;52.188;21.024;2022-09-27T06:11:01;41.85;;;21.08;;
31402;SDS011;18039;52.188;21.024;2022-09-27T06:13:32;50.40;;;21.98;;
31402;SDS011;18039;52.188;21.024;2022-09-27T06:16:02;51.20;;;22.80;;
31402;SDS011;18039;52.188;21.024;2022-09-27T06:18:31;45.08;;;22.05;;
31402;SDS011;18039;52.188;21.024;2022-09-27T06:20:59;45.28;;;21.80;;
31402;SDS011;18039;52.188;21.024;2022-09-27T06:23:27;43.30;;;21.45;;
31402;SDS011;18039;52.188;21.024;2022-09-27T06:25:59;44.28;;;21.02;;
31402;SDS011;18039;52.188;21.024;2022-09-27T06:28:39;47.08;;;22.20;;
31402;SDS011;18039;52.188;21.024;2022-09-27T06:31:07;47.70;;;21.23;;
31402;SDS011;18039;52.188;21.024;2022-09-27T06:33:45;41.47;;;20.00;;
31402;SDS011;18039;52.188;21.024;2022-09-27T06:36:13;32.42;;;18.10;;
31402;SDS011;18039;52.188;21.024;2022-09-27T06:38:40;37.28;;;18.30;;
31402;SDS011;18039;52.188;21.024;2022-09-27T06:41:18;36.50;;;18.05;;
31402;SDS011;18039;52.188;21.024;2022-09-27T06:44:04;39.95;;;19.58;;
31402;SDS011;18039;52.188;21.024;2022-09-27T06:46:31;44.85;;;21.38;;
31402;SDS011;18039;52.188;21.024;2022-09-27T06:49:10;43.47;;;18.83;;
31402;SDS011;18039;52.188;21.024;2022-09-27T06:51:39;43.63;;;19.95;;
31402;SDS011;18039;52.188;21.024;2022-09-27T06:54:06;37.20;;;17.60;;
31402;SDS011;18039;52.188;21.024;2022-09-27T06:56:33;37.95;;;17.63;;
31402;SDS011;18039;52.188;21.024;2022-09-27T06:59:00;36.63;;;17.23;;
31402;SDS011;18039;52.188;21.024;2022-09-27T07:01:48;39.17;;;18.33;;
31402;SDS011;18039;52.188;21.024;2022-09-27T07:04:27;34.40;;;17.17;;
31402;SDS011;18039;52.188;21.024;2022-09-27T07:07:00;41.95;;;18.77;;
31402;SDS011;18039;52.188;21.024;2022-09-27T07:09:31;39.03;;;18.42;;
31402;SDS011;18039;52.188;21.024;2022-09-27T07:11:59;39.28;;;18.88;;
31402;SDS011;18039;52.188;21.024;2022-09-27T07:14:26;45.63;;;21.08;;
31402;SDS011;18039;52.188;21.024;2022-09-27T07:16:54;43.05;;;19.27;;
31402;SDS011;18039;52.188;21.024;2022-09-27T07:19:22;40.63;;;18.33;;
31402;SDS011;18039;52.188;21.024;2022-09-27T07:21:50;46.72;;;21.33;;
31402;SDS011;18039;52.188;21.024;2022-09-27T07:24:18;46.78;;;19.73;;
31402;SDS011;18039;52.188;21.024;2022-09-27T07:26:46;43.22;;;20.60;;
31402;SDS011;18039;52.188;21.024;2022-09-27T07:29:15;52.30;;;22.13;;
31402;SDS011;18039;52.188;21.024;2022-09-27T07:31:43;51.20;;;21.88;;
31402;SDS011;18039;52.188;21.024;2022-09-27T07:34:10;44.30;;;20.75;;
31402;SDS011;18039;52.188;21.024;2022-09-27T07:36:38;43.47;;;21.27;;
31402;SDS011;18039;52.188;21.024;2022-09-27T07:39:08;46.08;;;21.75;;
31402;SDS011;18039;52.188;21.024;2022-09-27T07:41:35;43.97;;;21.02;;
31402;SDS011;18039;52.188;21.024;2022-09-27T07:44:02;38.30;;;19.65;;
31402;SDS011;18039;52.188;21.024;2022-09-27T07:46:33;42.30;;;20.90;;
31402;SDS011;18039;52.188;21.024;2022-09-27T07:49:16;39.10;;;19.00;;
31402;SDS011;18039;52.188;21.024;2022-09-27T07:51:59;35.10;;;18.27;;
31402;SDS011;18039;52.188;21.024;2022-09-27T07:55:05;38.00;;;19.70;;
31402;SDS011;18039;52.188;21.024;2022-09-27T07:57:49;40.90;;;19.48;;
31402;SDS011;18039;52.188;21.024;2022-09-27T08:00:17;40.78;;;19.73;;
31402;SDS011;18039;52.188;21.024;2022-09-27T08:02:47;35.80;;;18.27;;
31402;SDS011;18039;52.188;21.024;2022-09-27T08:05:14;39.92;;;20.95;;
31402;SDS011;18039;52.188;21.024;2022-09-27T08:07:41;36.17;;;20.08;;
31402;SDS011;18039;52.188;21.024;2022-09-27T08:10:09;45.08;;;21.02;;
31402;SDS011;18039;52.188;21.024;2022-09-27T08:12:37;40.75;;;19.88;;
31402;SDS011;18039;52.188;21.024;2022-09-27T08:15:04;33.55;;;17.58;;
31402;SDS011;18039;52.188;21.024;2022-09-27T08:17:32;42.30;;;23.38;;
31402;SDS011;18039;52.188;21.024;2022-09-27T08:20:26;41.97;;;19.88;;
31402;SDS011;18039;52.188;21.024;2022-09-27T08:23:17;43.45;;;20.77;;
31402;SDS011;18039;52.188;21.024;2022-09-27T08:25:52;42.40;;;19.83;;
31402;SDS011;18039;52.188;21.024;2022-09-27T08:28:32;38.22;;;19.67;;
31402;SDS011;18039;52.188;21.024;2022-09-27T08:33:31;43.33;;;22.50;;
31402;SDS011;18039;52.188;21.024;2022-09-27T08:36:11;36.53;;;20.90;;
31402;SDS011;18039;52.188;21.024;2022-09-27T08:38:39;34.83;;;20.17;;
31402;SDS011;18039;52.188;21.024;2022-09-27T08:47:15;36.85;;;19.30;;
31402;SDS011;18039;52.188;21.024;2022-09-27T08:49:54;38.13;;;19.70;;
31402;SDS011;18039;52.188;21.024;2022-09-27T08:52:24;34.53;;;20.00;;
31402;SDS011;18039;52.188;21.024;2022-09-27T08:54:57;34.10;;;19.85;;
31402;SDS011;18039;52.188;21.024;2022-09-27T08:57:29;36.72;;;20.60;;
31402;SDS011;18039;52.188;21.024;2022-09-27T09:02:33;37.50;;;19.85;;
31402;SDS011;18039;52.188;21.024;2022-09-27T09:05:04;33.45;;;19.00;;
31402;SDS011;18039;52.188;21.024;2022-09-27T09:13:47;32.78;;;20.05;;
31402;SDS011;18039;52.188;21.024;2022-09-27T09:33:52;30.98;;;18.98;;
31402;SDS011;18039;52.188;21.024;2022-09-27T09:36:25;35.25;;;20.30;;
31402;SDS011;18039;52.188;21.024;2022-09-27T09:47:36;29.58;;;18.42;;
31402;SDS011;18039;52.188;21.024;2022-09-27T09:50:42;34.95;;;17.98;;
31402;SDS011;18039;52.188;21.024;2022-09-27T09:53:29;31.25;;;17.38;;
31402;SDS011;18039;52.188;21.024;2022-09-27T09:56:06;28.77;;;17.27;;
31402;SDS011;18039;52.188;21.024;2022-09-27T10:04:08;30.58;;;17.95;;
31402;SDS011;18039;52.188;21.024;2022-09-27T10:06:43;30.27;;;18.38;;
31402;SDS011;18039;52.188;21.024;2022-09-27T10:09:12;28.17;;;17.73;;
31402;SDS011;18039;52.188;21.024;2022-09-27T10:11:48;27.63;;;17.35;;
31402;SDS011;18039;52.188;21.024;2022-09-27T10:14:36;30.08;;;17.95;;
31402;SDS011;18039;52.188;21.024;2022-09-27T10:17:05;25.40;;;16.88;;
31402;SDS011;18039;52.188;21.024;2022-09-27T10:19:40;23.77;;;15.85;;
31402;SDS011;18039;52.188;21.024;2022-09-27T10:22:10;27.30;;;16.55;;
31402;SDS011;18039;52.188;21.024;2022-09-27T10:24:52;27.85;;;17.60;;
31402;SDS011;18039;52.188;21.024;2022-09-27T10:27:43;29.85;;;18.75;;
31402;SDS011;18039;52.188;21.024;2022-09-27T10:30:27;31.85;;;18.98;;
31402;SDS011;18039;52.188;21.024;2022-09-27T10:33:05;30.90;;;18.15;;
31402;SDS011;18039;52.188;21.024;2022-09-27T10:38:32;31.77;;;19.70;;
31402;SDS011;18039;52.188;21.024;2022-09-27T10:46:46;34.53;;;20.50;;
31402;SDS011;18039;52.188;21.024;2022-09-27T10:49:51;32.65;;;20.70;;
31402;SDS011;18039;52.188;21.024;2022-09-27T10:52:42;33.75;;;20.15;;
31402;SDS011;18039;52.188;21.024;2022-09-27T10:55:20;29.25;;;18.77;;
31402;SDS011;18039;52.188;21.024;2022-09-27T10:57:53;33.83;;;20.55;;
31402;SDS011;18039;52.188;21.024;2022-09-27T11:00:24;32.83;;;20.48;;
31402;SDS011;18039;52.188;21.024;2022-09-27T11:02:56;32.60;;;19.50;;
31402;SDS011;18039;52.188;21.024;2022-09-27T11:05:32;38.47;;;21.67;;
31402;SDS011;18039;52.188;21.024;2022-09-27T11:08:06;35.75;;;20.38;;
31402;SDS011;18039;52.188;21.024;2022-09-27T11:13:30;32.30;;;20.35;;
31402;SDS011;18039;52.188;21.024;2022-09-27T11:27:36;28.95;;;19.35;;
31402;SDS011;18039;52.188;21.024;2022-09-27T11:30:36;31.77;;;19.48;;
31402;SDS011;18039;52.188;21.024;2022-09-27T11:42:36;31.23;;;21.55;;
31402;SDS011;18039;52.188;21.024;2022-09-27T11:48:20;28.60;;;19.02;;
31402;SDS011;18039;52.188;21.024;2022-09-27T11:59:16;26.65;;;18.58;;
31402;SDS011;18039;52.188;21.024;2022-09-27T12:02:06;31.98;;;20.38;;
31402;SDS011;18039;52.188;21.024;2022-09-27T12:04:48;33.80;;;22.80;;
31402;SDS011;18039;52.188;21.024;2022-09-27T12:10:18;28.02;;;18.85;;
31402;SDS011;18039;52.188;21.024;2022-09-27T12:12:49;25.92;;;19.05;;
31402;SDS011;18039;52.188;21.024;2022-09-27T12:17:51;25.50;;;17.60;;
31402;SDS011;18039;52.188;21.024;2022-09-27T12:20:29;21.60;;;15.65;;
31402;SDS011;18039;52.188;21.024;2022-09-27T12:23:15;23.80;;;16.15;;
31402;SDS011;18039;52.188;21.024;2022-09-27T12:25:59;24.70;;;16.98;;
31402;SDS011;18039;52.188;21.024;2022-09-27T12:28:39;24.45;;;15.98;;
31402;SDS011;18039;52.188;21.024;2022-09-27T12:31:22;21.48;;;15.75;;
31402;SDS011;18039;52.188;21.024;2022-09-27T12:34:03;22.55;;;14.95;;
31402;SDS011;18039;52.188;21.024;2022-09-27T12:36:33;22.42;;;15.90;;
31402;SDS011;18039;52.188;21.024;2022-09-27T12:39:14;22.38;;;15.13;;
31402;SDS011;18039;52.188;21.024;2022-09-27T12:41:59;19.10;;;14.05;;
31402;SDS011;18039;52.188;21.024;2022-09-27T12:44:41;19.15;;;14.15;;
31402;SDS011;18039;52.188;21.024;2022-09-27T12:47:37;20.08;;;14.63;;
31402;SDS011;18039;52.188;21.024;2022-09-27T12:53:03;18.20;;;12.30;;
31402;SDS011;18039;52.188;21.024;2022-09-27T12:55:58;17.88;;;12.95;;
31402;SDS011;18039;52.188;21.024;2022-09-27T13:01:41;16.45;;;11.23;;
31402;SDS011;18039;52.188;21.024;2022-09-27T13:12:46;15.85;;;11.80;;
31402;SDS011;18039;52.188;21.024;2022-09-27T13:15:18;14.90;;;10.55;;
31402;SDS011;18039;52.188;21.024;2022-09-27T13:17:48;14.43;;;10.75;;
31402;SDS011;18039;52.188;21.024;2022-09-27T13:25:52;14.18;;;10.30;;
31402;SDS011;18039;52.188;21.024;2022-09-27T13:31:16;16.40;;;10.50;;
31402;SDS011;18039;52.188;21.024;2022-09-27T13:34:36;16.05;;;9.57;;
31402;SDS011;18039;52.188;21.024;2022-09-27T13:40:09;11.02;;;8.73;;
31402;SDS011;18039;52.188;21.024;2022-09-27T13:46:02;13.15;;;9.23;;
31402;SDS011;18039;52.188;21.024;2022-09-27T13:54:09;15.68;;;10.10;;
31402;SDS011;18039;52.188;21.024;2022-09-27T14:00:00;18.42;;;10.70;;
31402;SDS011;18039;52.188;21.024;2022-09-27T14:05:36;12.40;;;8.88;;
31402;SDS011;18039;52.188;21.024;2022-09-27T14:08:14;13.70;;;9.43;;
31402;SDS011;18039;52.188;21.024;2022-09-27T14:10:51;14.93;;;9.68;;
31402;SDS011;18039;52.188;21.024;2022-09-27T14:13:20;15.90;;;10.38;;
31402;SDS011;18039;52.188;21.024;2022-09-27T14:16:01;10.68;;;8.45;;
31402;SDS011;18039;52.188;21.024;2022-09-27T14:18:34;10.90;;;8.68;;
31402;SDS011;18039;52.188;21.024;2022-09-27T14:29:52;18.63;;;10.43;;
31402;SDS011;18039;52.188;21.024;2022-09-27T14:32:28;14.38;;;9.70;;
31402;SDS011;18039;52.188;21.024;2022-09-27T14:35:16;16.13;;;10.48;;
31402;SDS011;18039;52.188;21.024;2022-09-27T14:38:04;17.08;;;10.35;;
31402;SDS011;18039;52.188;21.024;2022-09-27T14:41:01;17.08;;;10.60;;
31402;SDS011;18039;52.188;21.024;2022-09-27T14:43:29;14.52;;;10.70;;
31402;SDS011;18039;52.188;21.024;2022-09-27T14:45:59;17.08;;;10.65;;
31402;SDS011;18039;52.188;21.024;2022-09-27T14:51:03;16.88;;;10.90;;
31402;SDS011;18039;52.188;21.024;2022-09-27T14:53:46;15.50;;;11.45;;
31402;SDS011;18039;52.188;21.024;2022-09-27T14:56:16;17.10;;;11.00;;
31402;SDS011;18039;52.188;21.024;2022-09-27T14:58:49;13.98;;;10.23;;
31402;SDS011;18039;52.188;21.024;2022-09-27T15:01:22;14.27;;;10.38;;
31402;SDS011;18039;52.188;21.024;2022-09-27T15:03:49;14.85;;;10.32;;
31402;SDS011;18039;52.188;21.024;2022-09-27T15:06:19;15.77;;;11.50;;
31402;SDS011;18039;52.188;21.024;2022-09-27T15:08:47;14.10;;;9.90;;
31402;SDS011;18039;52.188;21.024;2022-09-27T15:11:17;15.95;;;10.80;;
31402;SDS011;18039;52.188;21.024;2022-09-27T15:13:45;14.27;;;10.10;;
31402;SDS011;18039;52.188;21.024;2022-09-27T15:16:18;14.48;;;10.95;;
31402;SDS011;18039;52.188;21.024;2022-09-27T15:21:43;16.02;;;11.25;;
31402;SDS011;18039;52.188;21.024;2022-09-27T15:27:15;17.15;;;11.90;;
31402;SDS011;18039;52.188;21.024;2022-09-27T15:29:52;17.70;;;11.77;;
31402;SDS011;18039;52.188;21.024;2022-09-27T15:32:22;16.95;;;12.38;;
31402;SDS011;18039;52.188;21.024;2022-09-27T15:34:50;16.90;;;11.85;;
31402;SDS011;18039;52.188;21.024;2022-09-27T15:37:52;17.00;;;11.80;;
31402;SDS011;18039;52.188;21.024;2022-09-27T15:42:56;16.92;;;12.30;;
31402;SDS011;18039;52.188;21.024;2022-09-27T15:45:32;19.42;;;12.55;;
31402;SDS011;18039;52.188;21.024;2022-09-27T15:48:20;16.73;;;12.52;;
31402;SDS011;18039;52.188;21.024;2022-09-27T15:50:47;16.17;;;12.20;;
31402;SDS011;18039;52.188;21.024;2022-09-27T15:56:04;16.95;;;12.07;;
31402;SDS011;18039;52.188;21.024;2022-09-27T15:58:32;18.05;;;12.13;;
31402;SDS011;18039;52.188;21.024;2022-09-27T16:01:01;17.05;;;11.77;;
31402;SDS011;18039;52.188;21.024;2022-09-27T16:03:30;15.85;;;11.63;;
31402;SDS011;18039;52.188;21.024;2022-09-27T16:05:58;15.20;;;11.65;;
31402;SDS011;18039;52.188;21.024;2022-09-27T16:08:27;16.95;;;12.18;;
31402;SDS011;18039;52.188;21.024;2022-09-27T16:10:58;18.02;;;11.63;;
31402;SDS011;18039;52.188;21.024;2022-09-27T16:13:26;16.35;;;12.63;;
31402;SDS011;18039;52.188;21.024;2022-09-27T16:15:59;20.55;;;11.40;;
31402;SDS011;18039;52.188;21.024;2022-09-27T16:18:27;17.05;;;11.55;;
31402;SDS011;18039;52.188;21.024;2022-09-27T16:20:57;15.85;;;10.88;;
31402;SDS011;18039;52.188;21.024;2022-09-27T16:23:25;15.57;;;11.60;;
31402;SDS011;18039;52.188;21.024;2022-09-27T16:25:52;16.52;;;10.93;;
31402;SDS011;18039;52.188;21.024;2022-09-27T16:28:19;19.30;;;11.95;;
31402;SDS011;18039;52.188;21.024;2022-09-27T16:30:46;13.95;;;10.52;;
31402;SDS011;18039;52.188;21.024;2022-09-27T16:33:13;19.85;;;12.82;;
31402;SDS011;18039;52.188;21.024;2022-09-27T16:35:41;17.90;;;11.57;;
31402;SDS011;18039;52.188;21.024;2022-09-27T16:38:08;18.50;;;11.50;;
31402;SDS011;18039;52.188;21.024;2022-09-27T16:40:36;16.45;;;11.73;;
31402;SDS011;18039;52.188;21.024;2022-09-27T16:43:03;17.05;;;11.65;;
31402;SDS011;18039;52.188;21.024;2022-09-27T16:45:34;15.50;;;11.00;;
31402;SDS011;18039;52.188;21.024;2022-09-27T16:48:02;18.05;;;12.20;;
31402;SDS011;18039;52.188;21.024;2022-09-27T16:50:29;17.30;;;12.10;;
31402;SDS011;18039;52.188;21.024;2022-09-27T16:53:15;14.63;;;11.35;;
31402;SDS011;18039;52.188;21.024;2022-09-27T16:55:42;20.08;;;12.35;;
31402;SDS011;18039;52.188;21.024;2022-09-27T16:58:09;15.32;;;11.38;;
31402;SDS011;18039;52.188;21.024;2022-09-27T17:00:36;18.77;;;11.18;;
31402;SDS011;18039;52.188;21.024;2022-09-27T17:03:04;19.08;;;11.30;;
31402;SDS011;18039;52.188;21.024;2022-09-27T17:05:32;14.93;;;10.07;;
31402;SDS011;18039;52.188;21.024;2022-09-27T17:07:59;17.70;;;11.52;;
31402;SDS011;18039;52.188;21.024;2022-09-27T17:10:27;14.23;;;11.32;;
31402;SDS011;18039;52.188;21.024;2022-09-27T17:12:54;17.42;;;10.90;;
31402;SDS011;18039;52.188;21.024;2022-09-27T17:15:23;15.77;;;11.23;;
31402;SDS011;18039;52.188;21.024;2022-09-27T17:17:51;17.92;;;11.40;;
31402;SDS011;18039;52.188;21.024;2022-09-27T17:20:18;16.25;;;12.07;;
31402;SDS011;18039;52.188;21.024;2022-09-27T17:22:46;20.45;;;12.20;;
31402;SDS011;18039;52.188;21.024;2022-09-27T17:25:13;15.10;;;11.52;;
31402;SDS011;18039;52.188;21.024;2022-09-27T17:27:40;17.33;;;11.95;;
31402;SDS011;18039;52.188;21.024;2022-09-27T17:30:08;17.23;;;12.27;;
31402;SDS011;18039;52.188;21.024;2022-09-27T17:32:36;14.98;;;11.38;;
31402;SDS011;18039;52.188;21.024;2022-09-27T17:35:04;16.98;;;11.85;;
31402;SDS011;18039;52.188;21.024;2022-09-27T17:37:32;15.70;;;11.70;;
31402;SDS011;18039;52.188;21.024;2022-09-27T17:40:00;21.20;;;11.85;;
31402;SDS011;18039;52.188;21.024;2022-09-27T17:42:27;19.80;;;12.52;;
31402;SDS011;18039;52.188;21.024;2022-09-27T17:44:54;17.75;;;12.68;;
31402;SDS011;18039;52.188;21.024;2022-09-27T17:47:21;18.77;;;12.45;;
31402;SDS011;18039;52.188;21.024;2022-09-27T17:50:08;19.17;;;13.10;;
31402;SDS011;18039;52.188;21.024;2022-09-27T17:52:52;20.67;;;13.13;;
31402;SDS011;18039;52.188;21.024;2022-09-27T17:55:23;20.48;;;13.05;;
31402;SDS011;18039;52.188;21.024;2022-09-27T17:57:50;20.02;;;13.45;;
31402;SDS011;18039;52.188;21.024;2022-09-27T18:00:18;21.50;;;14.00;;
31402;SDS011;18039;52.188;21.024;2022-09-27T18:02:46;20.52;;;13.30;;
31402;SDS011;18039;52.188;21.024;2022-09-27T18:05:14;19.48;;;13.05;;
31402;SDS011;18039;52.188;21.024;2022-09-27T18:07:41;25.15;;;15.02;;
31402;SDS011;18039;52.188;21.024;2022-09-27T18:10:08;23.50;;;14.13;;
31402;SDS011;18039;52.188;21.024;2022-09-27T18:12:36;21.42;;;12.93;;
31402;SDS011;18039;52.188;21.024;2022-09-27T18:15:04;23.17;;;13.30;;
31402;SDS011;18039;52.188;21.024;2022-09-27T18:17:32;21.25;;;13.65;;